This is the latest recevied weather packets stored in our database for station/object DL2DHM-13. If no packets are shown the sender has not sent any weather packets the latest 10 day(s).
| Time | Temp. | Humidity | Pressure | Rain* | Wind** | Luminosity | Snow |
|---|---|---|---|---|---|---|---|
| 1777766719 | 14.44° C | 85% | 1012.4 hPa | 0 mm | - | 0 W/m² | - |
| 1777764914 | 15.56° C | 82% | 1012.4 hPa | 0 mm | - | 0 W/m² | - |
| 1777764011 | 16.11° C | 82% | 1012.5 hPa | 0 mm | - | 0 W/m² | - |
| 1777757760 | 15° C | 81% | 1013.3 hPa | 0 mm | - | 0 W/m² | - |
| 1777755655 | 14.44° C | 81% | 1013.3 hPa | 0 mm | - | 0 W/m² | - |
| 1777755357 | 15° C | 81% | 1013.4 hPa | 0 mm | - | 0 W/m² | - |
| 1777754151 | 15.56° C | 78% | 1013.2 hPa | 0 mm | - | 0 W/m² | - |
| 1777752947 | 16.11° C | 75% | 1013.2 hPa | 0 mm | - | 0 W/m² | - |
| 1777752349 | 16.11° C | 75% | 1013.2 hPa | 0 mm | - | 0 W/m² | - |
| 1777751146 | 16.11° C | 75% | 1013.3 hPa | 0 mm | - | 0 W/m² | - |
| 1777750845 | 16.11° C | 75% | 1013.3 hPa | 0 mm | - | 0 W/m² | - |
| 1777750244 | 16.67° C | 73% | 1013.2 hPa | 0 mm | - | 0 W/m² | - |
| 1777749942 | 16.67° C | 73% | 1013.2 hPa | 0 mm | - | 0 W/m² | - |
| 1777747839 | 18.33° C | 68% | 1013 hPa | 0 mm | - | 0 W/m² | - |
| 1777747534 | 18.89° C | 67% | 1013 hPa | 0 mm | - | 0 W/m² | - |
| 1777746931 | 19.44° C | 64% | 1012.9 hPa | 0 mm | - | 7 W/m² | - |
| 1777746630 | 20° C | 63% | 1012.9 hPa | 0 mm | - | 9 W/m² | - |
| 1777745424 | 20.56° C | 62% | 1013 hPa | 0 mm | - | 21 W/m² | - |
| 1777744521 | 21.11° C | 59% | 1013 hPa | 0 mm | - | 28 W/m² | - |
| 1777739405 | 25.56° C | 45% | 1013.5 hPa | 0 mm | - | 149 W/m² | - |
| 1777738581 | 25° C | 46% | 1013.6 hPa | 0 mm | - | 380 W/m² | - |
| 1777734049 | 25.56° C | 42% | 1014.3 hPa | 0 mm | - | 383 W/m² | - |
| 1777733748 | 25.56° C | 42% | 1014.3 hPa | 0 mm | - | 234 W/m² | - |
| 1777733146 | 25.56° C | 44% | 1014.5 hPa | 0 mm | - | 401 W/m² | - |
| 1777731344 | 26.11° C | 39% | 1014.7 hPa | 0 mm | - | 508 W/m² | - |
* Rain latest hour (hover to see other rain measurements)
** Current wind speed in m/s (hover to see current wind gust speed)